ENNA

Banak Airport

Lakselv, Norway
METAR ENNA 151320Z 17004KT 110V230 9999 FEW027 M03/M06 Q0996 RMK WIND 1800FT 18017KT
Observed Flight Rules
Dec-15 @ 13:20 UTC (28 minutes ago) Visual Flight Rules
Wind Visibility Clouds
170° at 4 knots 10,000+ meters
  • Few at 2,700' AGL
Temperatures Readings
Current -3°C / 27°F
Dewpoint -6°C / 21°F
Humidity 80%
Altimeter 29.41" Hg
Pressure 996 hPa
Elevation 8
METAR ENNA 151320Z 17004KT 110V230 9999 FEW027 M03/M06 Q0996 RMK WIND 1800FT 18017KT
Observed Flight Rules
Dec-15 @ 13:20 UTC
(28 minutes ago)
VFR
Wind Visibility
170° at 4 knots 10,000+ meters
Clouds
  • Few at 2,700' AGL
Temperature Dewpoint
-3°C / 27°F -6°C / 21°F
Humidity Altimeter Pressure
80% 29.41" Hg 996 hPa